createdAt,value
2023-02-26T00:00:47.412Z,0.00
2023-02-26T00:01:47.508Z,0.00
2023-02-26T00:02:47.379Z,0.00
2023-02-26T00:03:48.545Z,0.00
2023-02-26T00:04:47.685Z,0.00
2023-02-26T00:05:47.712Z,0.00
2023-02-26T00:06:47.643Z,0.00
2023-02-26T00:07:47.699Z,0.00
2023-02-26T00:08:52.619Z,0.00
2023-02-26T00:09:49.151Z,0.00
2023-02-26T00:10:47.284Z,0.00
2023-02-26T00:11:47.637Z,0.00
2023-02-26T00:12:47.590Z,0.00
2023-02-26T00:13:49.132Z,0.00
2023-02-26T00:14:47.561Z,0.00
2023-02-26T00:15:54.632Z,0.00
2023-02-26T00:16:47.573Z,0.00
2023-02-26T00:17:47.552Z,0.00
2023-02-26T00:18:47.181Z,0.00
2023-02-26T00:19:49.952Z,0.00
2023-02-26T00:20:47.183Z,0.00
2023-02-26T00:21:47.482Z,0.00
2023-02-26T00:22:47.194Z,0.00
2023-02-26T00:23:47.462Z,0.00
2023-02-26T00:24:47.514Z,0.00
2023-02-26T00:25:47.135Z,0.00
2023-02-26T00:26:47.473Z,0.00
2023-02-26T00:27:47.400Z,0.00
2023-02-26T00:28:47.097Z,0.00
2023-02-26T00:29:47.470Z,0.00
2023-02-26T00:30:47.088Z,0.00
2023-02-26T00:31:47.225Z,0.00
2023-02-26T00:32:47.061Z,0.00
2023-02-26T00:33:47.385Z,0.00
2023-02-26T00:34:47.340Z,0.00
2023-02-26T00:35:47.005Z,0.00
2023-02-26T00:36:47.370Z,0.00
2023-02-26T00:37:47.336Z,0.00
2023-02-26T00:38:47.266Z,0.00
2023-02-26T00:39:47.337Z,0.00
2023-02-26T00:40:46.953Z,0.00
2023-02-26T00:41:46.924Z,0.00
2023-02-26T00:42:46.947Z,0.00
2023-02-26T00:43:47.215Z,0.00
2023-02-26T00:44:46.915Z,0.00
2023-02-26T00:45:46.964Z,0.00
2023-02-26T00:46:46.918Z,0.00
2023-02-26T00:47:47.282Z,0.00
2023-02-26T00:48:47.162Z,0.00
2023-02-26T00:49:47.247Z,0.00
2023-02-26T00:50:55.204Z,0.00
2023-02-26T00:51:57.643Z,0.00
2023-02-26T00:52:54.190Z,0.00
2023-02-26T00:53:56.659Z,0.00
2023-02-26T00:54:55.647Z,0.00
2023-02-26T00:55:47.108Z,0.00
2023-02-26T00:56:49.538Z,0.00
2023-02-26T00:57:47.069Z,0.00
2023-02-26T00:58:47.042Z,0.00
2023-02-26T00:59:46.753Z,0.00
2023-02-26T01:00:46.759Z,0.00
2023-02-26T01:01:46.792Z,0.00
2023-02-26T01:02:47.017Z,0.00
2023-02-26T01:03:47.075Z,0.00
2023-02-26T01:04:46.979Z,0.00
2023-02-26T01:05:46.658Z,0.00
2023-02-26T01:06:47.036Z,0.00
2023-02-26T01:07:46.997Z,0.00
2023-02-26T01:08:46.997Z,0.00
2023-02-26T01:09:46.959Z,0.00
2023-02-26T01:10:46.952Z,0.00
2023-02-26T01:11:46.608Z,0.00
2023-02-26T01:12:46.635Z,0.00
2023-02-26T01:13:46.586Z,0.00
2023-02-26T01:14:46.574Z,0.00
2023-02-26T01:15:46.571Z,0.00
2023-02-26T01:16:46.856Z,0.00
2023-02-26T01:17:46.865Z,0.00
2023-02-26T01:18:46.845Z,0.00
2023-02-26T01:19:46.825Z,0.00
2023-02-26T01:20:46.814Z,0.00
2023-02-26T01:21:46.481Z,0.00
2023-02-26T01:22:49.255Z,0.00
2023-02-26T01:23:46.446Z,0.00
2023-02-26T01:24:46.457Z,0.00
2023-02-26T01:25:46.747Z,0.00
2023-02-26T01:26:46.802Z,0.00
2023-02-26T01:27:47.449Z,0.00
2023-02-26T01:28:46.725Z,0.00
2023-02-26T01:29:46.674Z,0.00
2023-02-26T01:30:49.283Z,0.00
2023-02-26T01:31:46.533Z,0.00
2023-02-26T01:32:46.855Z,0.00
2023-02-26T01:33:48.126Z,0.00
2023-02-26T01:34:48.217Z,0.00
2023-02-26T01:35:46.334Z,0.00
2023-02-26T01:36:46.665Z,0.00
2023-02-26T01:37:46.636Z,0.00
2023-02-26T01:38:48.167Z,0.00
2023-02-26T01:39:46.679Z,0.00
2023-02-26T01:40:46.673Z,0.00
2023-02-26T01:41:46.630Z,0.00
2023-02-26T01:42:47.057Z,0.00
2023-02-26T01:43:46.257Z,0.00
2023-02-26T01:44:46.498Z,0.00
2023-02-26T01:45:50.949Z,0.00
2023-02-26T01:46:46.312Z,0.00
2023-02-26T01:47:46.523Z,0.00
2023-02-26T01:48:46.469Z,0.00
2023-02-26T01:49:46.239Z,0.00
2023-02-26T01:50:48.979Z,0.00
2023-02-26T01:51:50.423Z,0.00
2023-02-26T01:52:46.470Z,0.00
2023-02-26T01:53:46.469Z,0.00
2023-02-26T01:54:46.479Z,0.00
2023-02-26T01:55:48.971Z,0.00
2023-02-26T01:56:46.167Z,0.00
2023-02-26T01:57:46.091Z,0.00
2023-02-26T01:58:46.094Z,0.00
2023-02-26T01:59:48.861Z,0.00
2023-02-26T02:00:46.032Z,0.00
2023-02-26T02:01:46.379Z,0.00
2023-02-26T02:02:46.513Z,0.00
2023-02-26T02:03:46.363Z,0.00
2023-02-26T02:04:48.739Z,0.00
2023-02-26T02:05:48.790Z,0.00
2023-02-26T02:06:46.340Z,0.00
2023-02-26T02:07:46.361Z,0.00
2023-02-26T02:08:46.216Z,0.00
2023-02-26T02:09:46.394Z,0.00
2023-02-26T02:10:46.287Z,0.00
2023-02-26T02:11:45.919Z,0.00
2023-02-26T02:12:46.247Z,0.00
2023-02-26T02:13:46.708Z,0.00
2023-02-26T02:14:45.896Z,0.00
2023-02-26T02:15:47.655Z,0.00
2023-02-26T02:16:46.243Z,0.00
2023-02-26T02:17:46.260Z,0.00
2023-02-26T02:18:46.226Z,0.00
2023-02-26T02:19:48.616Z,0.00
2023-02-26T02:20:46.132Z,0.00
2023-02-26T02:21:46.118Z,0.00
2023-02-26T02:22:47.572Z,0.00
2023-02-26T02:23:54.628Z,0.00
2023-02-26T02:24:56.078Z,0.00
2023-02-26T02:25:53.054Z,0.00
2023-02-26T02:26:53.092Z,0.00
2023-02-26T02:27:53.580Z,0.00
2023-02-26T02:28:54.529Z,0.00
2023-02-26T02:29:53.010Z,0.00
2023-02-26T02:30:46.051Z,0.00
2023-02-26T02:31:46.166Z,0.00
2023-02-26T02:32:46.081Z,0.00
2023-02-26T02:33:46.031Z,0.00
2023-02-26T02:34:46.028Z,0.00
2023-02-26T02:35:45.906Z,0.00
2023-02-26T02:36:45.969Z,0.00
2023-02-26T02:37:45.957Z,0.00
2023-02-26T02:38:48.408Z,0.00
2023-02-26T02:39:48.357Z,0.00
2023-02-26T02:40:45.892Z,0.00
2023-02-26T02:41:45.889Z,0.00
2023-02-26T02:42:45.958Z,0.00
2023-02-26T02:43:47.408Z,0.00
2023-02-26T02:44:45.865Z,0.00
2023-02-26T02:45:45.871Z,0.00
2023-02-26T02:46:45.930Z,0.00
2023-02-26T02:47:45.851Z,0.00
2023-02-26T02:48:45.858Z,0.00
2023-02-26T02:49:47.538Z,0.00
2023-02-26T02:50:45.770Z,0.00
2023-02-26T02:51:48.351Z,0.00
2023-02-26T02:52:45.842Z,0.00
2023-02-26T02:53:45.710Z,0.00
2023-02-26T02:54:45.847Z,0.00
2023-02-26T02:55:48.182Z,0.00
2023-02-26T02:56:45.768Z,0.00
2023-02-26T02:57:45.758Z,0.00
2023-02-26T02:58:48.149Z,0.00
2023-02-26T02:59:45.878Z,0.00
2023-02-26T03:00:45.406Z,0.00
2023-02-26T03:01:45.689Z,0.00
2023-02-26T03:02:45.719Z,0.00
2023-02-26T03:03:45.719Z,0.00
2023-02-26T03:04:45.624Z,0.00
2023-02-26T03:05:45.660Z,0.00
2023-02-26T03:06:45.797Z,0.00
2023-02-26T03:07:45.632Z,0.00
2023-02-26T03:08:47.223Z,0.00
2023-02-26T03:09:45.602Z,0.00
2023-02-26T03:10:45.611Z,0.00
2023-02-26T03:11:45.260Z,0.00
2023-02-26T03:12:45.246Z,0.00
2023-02-26T03:13:45.530Z,0.00
2023-02-26T03:14:45.503Z,0.00
2023-02-26T03:15:45.540Z,0.00
2023-02-26T03:16:45.618Z,0.00
2023-02-26T03:17:45.600Z,0.00
2023-02-26T03:18:45.160Z,0.00
2023-02-26T03:19:45.511Z,0.00
2023-02-26T03:20:45.525Z,0.00
2023-02-26T03:21:45.145Z,0.00
2023-02-26T03:22:45.508Z,0.00
2023-02-26T03:23:45.483Z,0.00
2023-02-26T03:24:45.423Z,0.00
2023-02-26T03:25:45.450Z,0.00
2023-02-26T03:26:47.883Z,0.00
2023-02-26T03:27:45.413Z,0.00
2023-02-26T03:28:45.429Z,0.00
2023-02-26T03:29:45.374Z,0.00
2023-02-26T03:30:45.383Z,0.00
2023-02-26T03:31:45.446Z,0.00
2023-02-26T03:32:45.113Z,0.00
2023-02-26T03:33:45.312Z,0.00
2023-02-26T03:34:47.845Z,0.00
2023-02-26T03:35:47.775Z,0.00
2023-02-26T03:36:45.006Z,0.00
2023-02-26T03:37:45.319Z,0.00
2023-02-26T03:38:45.365Z,0.00
2023-02-26T03:39:45.269Z,0.00
2023-02-26T03:40:45.307Z,0.00
2023-02-26T03:41:47.755Z,0.00
2023-02-26T03:42:45.254Z,0.00
2023-02-26T03:43:49.157Z,0.00
2023-02-26T03:44:46.757Z,0.00
2023-02-26T03:45:47.708Z,0.00
2023-02-26T03:46:45.207Z,0.00
2023-02-26T03:47:47.659Z,0.00
2023-02-26T03:48:44.862Z,0.00
2023-02-26T03:49:45.168Z,0.00
2023-02-26T03:50:47.617Z,0.00
2023-02-26T03:51:45.160Z,0.00
2023-02-26T03:52:47.645Z,0.00
2023-02-26T03:53:44.806Z,0.00
2023-02-26T03:54:45.162Z,0.00
2023-02-26T03:55:45.127Z,0.00
2023-02-26T03:56:46.625Z,0.00
2023-02-26T03:57:45.133Z,0.00
2023-02-26T03:58:45.034Z,0.00
2023-02-26T03:59:45.004Z,0.00
2023-02-26T04:00:52.626Z,0.00
2023-02-26T04:01:52.086Z,0.00
2023-02-26T04:02:54.537Z,0.00
2023-02-26T04:03:45.056Z,0.00
2023-02-26T04:04:53.044Z,0.00
2023-02-26T04:05:45.033Z,0.00
2023-02-26T04:06:45.030Z,0.00
2023-02-26T04:07:47.413Z,0.00
2023-02-26T04:08:46.493Z,0.00
2023-02-26T04:09:44.958Z,0.00
2023-02-26T04:10:44.944Z,0.00
2023-02-26T04:11:44.979Z,0.00
2023-02-26T04:12:44.973Z,0.00
2023-02-26T04:13:44.923Z,0.00
2023-02-26T04:14:44.933Z,0.00
2023-02-26T04:15:44.906Z,0.00
2023-02-26T04:16:44.921Z,0.00
2023-02-26T04:17:44.862Z,0.00
2023-02-26T04:18:44.869Z,0.00
2023-02-26T04:19:44.874Z,0.00
2023-02-26T04:20:46.403Z,0.00
2023-02-26T04:21:44.945Z,0.00
2023-02-26T04:22:44.852Z,0.00
2023-02-26T04:23:44.852Z,0.00
2023-02-26T04:24:47.275Z,0.00
2023-02-26T04:25:46.341Z,0.00
2023-02-26T04:26:46.384Z,0.00
2023-02-26T04:27:44.742Z,0.00
2023-02-26T04:28:47.220Z,0.00
2023-02-26T04:29:46.290Z,0.00
2023-02-26T04:30:44.817Z,0.00
2023-02-26T04:31:44.819Z,0.00
2023-02-26T04:32:44.702Z,0.00
2023-02-26T04:33:44.757Z,0.00
2023-02-26T04:34:44.717Z,0.00
2023-02-26T04:35:44.693Z,0.00
2023-02-26T04:36:44.700Z,0.00
2023-02-26T04:37:44.651Z,0.00
2023-02-26T04:38:44.658Z,0.00
2023-02-26T04:39:44.660Z,0.00
2023-02-26T04:40:44.606Z,0.00
2023-02-26T04:41:44.608Z,0.00
2023-02-26T04:42:47.266Z,0.00
2023-02-26T04:43:44.594Z,0.00
2023-02-26T04:44:47.006Z,0.00
2023-02-26T04:45:44.544Z,0.00
2023-02-26T04:46:44.210Z,0.00
2023-02-26T04:47:44.544Z,0.00
2023-02-26T04:48:44.557Z,0.00
2023-02-26T04:49:47.018Z,0.00
2023-02-26T04:50:44.534Z,0.00
2023-02-26T04:51:44.162Z,0.00
2023-02-26T04:52:44.168Z,0.00
2023-02-26T04:53:46.955Z,0.00
2023-02-26T04:54:44.145Z,0.00
2023-02-26T04:55:44.489Z,0.00
2023-02-26T04:56:44.492Z,0.00
2023-02-26T04:57:44.456Z,0.00
2023-02-26T04:58:44.099Z,0.00
2023-02-26T04:59:44.457Z,0.00
2023-02-26T05:00:46.859Z,0.00
2023-02-26T05:01:44.477Z,0.00
2023-02-26T05:02:45.945Z,0.00
2023-02-26T05:03:44.870Z,0.00
2023-02-26T05:04:44.072Z,0.00
2023-02-26T05:05:44.016Z,0.00
2023-02-26T05:06:44.343Z,0.00
2023-02-26T05:07:43.986Z,0.00
2023-02-26T05:08:44.321Z,0.00
2023-02-26T05:09:44.310Z,0.00
2023-02-26T05:10:44.291Z,0.00
2023-02-26T05:11:44.244Z,0.00
2023-02-26T05:12:44.277Z,0.00
2023-02-26T05:13:44.257Z,0.00
2023-02-26T05:14:44.272Z,0.00
2023-02-26T05:15:44.248Z,0.00
2023-02-26T05:16:43.909Z,0.00
2023-02-26T05:17:46.688Z,0.00
2023-02-26T05:18:43.917Z,0.00
2023-02-26T05:19:45.780Z,0.00
2023-02-26T05:20:43.828Z,0.00
2023-02-26T05:21:44.218Z,0.00
2023-02-26T05:22:44.194Z,0.00
2023-02-26T05:23:46.658Z,0.00
2023-02-26T05:24:44.169Z,0.00
2023-02-26T05:25:43.811Z,0.00
2023-02-26T05:26:44.087Z,0.00
2023-02-26T05:27:43.778Z,0.00
2023-02-26T05:28:43.769Z,0.00
2023-02-26T05:29:44.138Z,0.00
2023-02-26T05:30:44.194Z,0.00
2023-02-26T05:31:44.206Z,0.00
2023-02-26T05:32:44.041Z,0.00
2023-02-26T05:33:52.091Z,0.00
2023-02-26T05:34:51.551Z,0.00
2023-02-26T05:35:52.039Z,0.00
2023-02-26T05:36:51.023Z,0.00
2023-02-26T05:37:52.014Z,0.00
2023-02-26T05:38:44.002Z,0.00
2023-02-26T05:39:45.454Z,0.00
2023-02-26T05:40:43.963Z,0.00
2023-02-26T05:41:44.069Z,0.00
2023-02-26T05:42:43.975Z,0.00
2023-02-26T05:43:46.405Z,0.00
2023-02-26T05:44:44.355Z,0.00
2023-02-26T05:45:43.564Z,0.00
2023-02-26T05:46:43.936Z,0.00
2023-02-26T05:47:46.437Z,0.00
2023-02-26T05:48:45.800Z,0.00
2023-02-26T05:49:43.925Z,0.00
2023-02-26T05:50:43.833Z,0.00
2023-02-26T05:51:43.946Z,0.00
2023-02-26T05:52:43.812Z,4.00
2023-02-26T05:53:43.872Z,4.00
2023-02-26T05:54:46.340Z,0.00
2023-02-26T05:55:43.777Z,4.00
2023-02-26T05:56:48.651Z,4.00
2023-02-26T05:57:44.384Z,4.00
2023-02-26T05:58:43.771Z,8.00
2023-02-26T05:59:43.779Z,8.00
2023-02-26T06:00:43.753Z,8.00
2023-02-26T06:01:45.325Z,8.00
2023-02-26T06:02:45.275Z,8.00
2023-02-26T06:03:44.388Z,12.00
2023-02-26T06:04:46.174Z,12.00
2023-02-26T06:05:46.517Z,16.00
2023-02-26T06:06:43.737Z,20.00
2023-02-26T06:07:43.751Z,24.00
2023-02-26T06:08:45.291Z,28.00
2023-02-26T06:09:46.160Z,32.00
2023-02-26T06:10:43.639Z,40.00
2023-02-26T06:11:43.293Z,48.00
2023-02-26T06:12:43.676Z,52.00
2023-02-26T06:13:44.464Z,60.00
2023-02-26T06:14:43.740Z,72.00
2023-02-26T06:15:45.188Z,80.00
2023-02-26T06:16:43.261Z,92.00
2023-02-26T06:17:46.078Z,108.00
2023-02-26T06:18:43.550Z,124.00
2023-02-26T06:19:43.572Z,140.00
2023-02-26T06:20:43.574Z,160.00
2023-02-26T06:21:43.580Z,176.00
2023-02-26T06:22:44.142Z,196.00
2023-02-26T06:23:46.003Z,220.00
2023-02-26T06:24:43.189Z,240.00
2023-02-26T06:25:43.512Z,268.00
2023-02-26T06:26:43.484Z,292.00
2023-02-26T06:27:43.552Z,320.00
2023-02-26T06:28:43.428Z,348.00
2023-02-26T06:29:43.463Z,376.00
2023-02-26T06:30:43.457Z,408.00
2023-02-26T06:31:48.453Z,440.00
2023-02-26T06:32:43.610Z,472.00
2023-02-26T06:33:43.413Z,504.00
2023-02-26T06:34:43.449Z,540.00
2023-02-26T06:35:44.525Z,572.00
2023-02-26T06:36:43.393Z,608.00
2023-02-26T06:37:43.401Z,644.00
2023-02-26T06:38:45.816Z,676.00
2023-02-26T06:39:43.315Z,712.00
2023-02-26T06:40:43.354Z,748.00
2023-02-26T06:41:43.344Z,784.00
2023-02-26T06:42:43.944Z,820.00
2023-02-26T06:43:44.935Z,852.00
2023-02-26T06:44:44.771Z,888.00
2023-02-26T06:45:43.266Z,920.00
2023-02-26T06:46:43.268Z,956.00
2023-02-26T06:47:43.319Z,992.00
2023-02-26T06:48:43.257Z,1024.00
2023-02-26T06:49:43.256Z,1064.00
2023-02-26T06:50:43.230Z,1100.00
2023-02-26T06:51:43.206Z,1144.00
2023-02-26T06:52:43.189Z,1188.00
2023-02-26T06:53:43.188Z,1236.00
2023-02-26T06:54:43.175Z,1284.00
2023-02-26T06:55:43.217Z,1332.00
2023-02-26T06:56:44.636Z,1368.00
2023-02-26T06:57:45.636Z,1400.00
2023-02-26T06:58:43.587Z,1436.00
2023-02-26T06:59:43.144Z,1476.00
2023-02-26T07:00:43.244Z,1508.00
2023-02-26T07:01:43.166Z,1516.00
2023-02-26T07:02:43.096Z,1516.00
2023-02-26T07:03:43.123Z,1520.00
2023-02-26T07:04:44.572Z,1544.00
2023-02-26T07:05:43.084Z,1608.00
2023-02-26T07:06:44.555Z,1640.00
2023-02-26T07:07:43.036Z,1660.00
2023-02-26T07:08:45.509Z,1716.00
2023-02-26T07:09:52.505Z,1756.00
2023-02-26T07:10:50.028Z,1764.00
2023-02-26T07:11:44.549Z,1876.00
2023-02-26T07:12:51.554Z,1952.00
2023-02-26T07:13:53.419Z,1980.00
2023-02-26T07:14:42.957Z,1948.00
2023-02-26T07:15:46.319Z,1916.00
2023-02-26T07:16:42.963Z,1928.00
2023-02-26T07:17:43.605Z,1928.00
2023-02-26T07:18:45.456Z,1936.00
2023-02-26T07:19:42.536Z,1972.00
2023-02-26T07:20:42.890Z,2052.00
2023-02-26T07:21:42.850Z,2096.00
2023-02-26T07:22:45.577Z,2108.00
2023-02-26T07:23:46.394Z,2144.00
2023-02-26T07:24:42.928Z,2412.00
2023-02-26T07:25:42.885Z,2668.00
2023-02-26T07:26:43.545Z,2756.00
2023-02-26T07:27:45.290Z,2852.00
2023-02-26T07:28:45.296Z,3016.00
2023-02-26T07:29:42.842Z,3068.00
2023-02-26T07:30:42.849Z,3016.00
2023-02-26T07:31:42.590Z,2972.00
2023-02-26T07:32:42.757Z,2976.00
2023-02-26T07:33:42.734Z,3016.00
2023-02-26T07:34:42.728Z,2964.00
2023-02-26T07:35:43.262Z,2944.00
2023-02-26T07:36:44.244Z,2936.00
2023-02-26T07:37:42.750Z,2988.00
2023-02-26T07:38:42.694Z,3016.00
2023-02-26T07:39:42.692Z,3044.00
2023-02-26T07:40:42.698Z,3104.00
2023-02-26T07:41:42.673Z,3148.00
2023-02-26T07:42:45.162Z,3180.00
2023-02-26T07:43:42.656Z,3204.00
2023-02-26T07:44:42.292Z,3204.00
2023-02-26T07:45:42.635Z,3212.00
2023-02-26T07:46:42.531Z,3244.00
2023-02-26T07:47:42.271Z,3304.00
2023-02-26T07:48:42.560Z,3360.00
2023-02-26T07:49:42.609Z,3384.00
2023-02-26T07:50:44.043Z,3380.00
2023-02-26T07:51:42.631Z,3356.00
2023-02-26T07:52:46.450Z,3324.00
2023-02-26T07:53:42.190Z,3296.00
2023-02-26T07:54:46.302Z,3288.00
2023-02-26T07:55:43.953Z,3292.00
2023-02-26T07:56:44.985Z,3308.00
2023-02-26T07:57:42.509Z,3328.00
2023-02-26T07:58:44.073Z,3352.00
2023-02-26T07:59:42.877Z,3380.00
2023-02-26T08:00:45.082Z,3408.00
2023-02-26T08:01:45.964Z,3428.00
2023-02-26T08:02:45.022Z,3448.00
2023-02-26T08:03:47.829Z,3464.00
2023-02-26T08:04:44.954Z,3492.00
2023-02-26T08:05:48.311Z,2796.00
2023-02-26T08:07:53.811Z,2960.00
2023-02-26T08:08:56.296Z,3384.00
2023-02-26T08:09:54.481Z,3544.00
2023-02-26T08:10:54.519Z,3596.00
2023-02-26T08:11:55.446Z,3596.00
2023-02-26T08:12:53.349Z,3588.00
2023-02-26T08:13:52.893Z,3612.00
2023-02-26T08:14:55.416Z,3492.00
2023-02-26T08:15:54.586Z,3568.00
2023-02-26T08:16:55.357Z,3624.00
2023-02-26T08:17:52.941Z,3324.00
2023-02-26T08:18:52.866Z,3520.00
2023-02-26T08:19:54.324Z,3740.00
2023-02-26T08:20:54.909Z,3888.00
2023-02-26T08:21:52.859Z,3956.00
2023-02-26T08:22:52.458Z,4064.00
2023-02-26T08:23:52.809Z,4168.00
2023-02-26T08:24:54.469Z,4244.00
2023-02-26T08:25:54.279Z,4324.00
2023-02-26T08:26:55.206Z,4372.00
2023-02-26T08:27:56.239Z,4452.00
2023-02-26T08:28:52.736Z,4548.00
2023-02-26T08:30:01.871Z,4572.00
2023-02-26T08:30:54.574Z,4244.00
2023-02-26T08:31:54.419Z,4444.00
2023-02-26T08:32:53.372Z,4316.00
2023-02-26T08:33:55.169Z,4188.00
2023-02-26T08:34:53.179Z,4056.00
2023-02-26T08:36:00.422Z,3984.00
2023-02-26T08:38:05.854Z,3936.00
2023-02-26T08:39:05.109Z,3924.00
2023-02-26T08:40:05.044Z,3932.00
2023-02-26T08:41:05.676Z,3968.00
2023-02-26T08:42:07.570Z,3968.00
2023-02-26T08:43:05.044Z,3944.00
2023-02-26T08:44:08.546Z,3952.00
2023-02-26T08:45:12.459Z,3960.00
2023-02-26T08:46:15.297Z,3972.00
2023-02-26T08:47:21.766Z,3984.00
2023-02-26T08:48:12.514Z,3984.00
2023-02-26T08:49:15.555Z,3988.00
2023-02-26T08:50:15.638Z,3996.00
2023-02-26T08:51:05.015Z,4012.00
2023-02-26T08:52:07.635Z,4028.00
2023-02-26T08:53:05.018Z,4044.00
2023-02-26T08:54:04.953Z,4068.00
2023-02-26T08:55:06.517Z,4076.00
2023-02-26T08:56:05.034Z,4088.00
2023-02-26T08:57:04.935Z,4096.00
2023-02-26T08:58:04.967Z,4120.00
2023-02-26T08:59:05.494Z,4012.00
2023-02-26T09:00:06.508Z,3796.00
2023-02-26T09:01:04.533Z,4164.00
2023-02-26T09:02:04.930Z,4192.00
2023-02-26T09:03:04.975Z,4208.00
2023-02-26T09:04:04.895Z,4204.00
2023-02-26T09:05:04.515Z,4324.00
2023-02-26T09:06:04.855Z,4428.00
2023-02-26T09:07:04.486Z,3904.00
2023-02-26T09:08:04.756Z,4432.00
2023-02-26T09:09:04.777Z,4248.00
2023-02-26T09:10:04.755Z,5092.00
2023-02-26T09:11:04.747Z,4756.00
2023-02-26T09:12:07.227Z,4628.00
2023-02-26T09:13:04.376Z,4984.00
2023-02-26T09:14:04.707Z,4816.00
2023-02-26T09:15:04.368Z,4968.00
2023-02-26T09:16:04.754Z,5120.00
2023-02-26T09:17:04.341Z,4584.00
2023-02-26T09:18:04.358Z,4052.00
2023-02-26T09:19:04.654Z,4884.00
2023-02-26T09:20:04.301Z,4840.00
2023-02-26T09:21:04.296Z,4800.00
2023-02-26T09:22:07.079Z,4424.00
2023-02-26T09:23:04.596Z,4148.00
2023-02-26T09:24:04.275Z,4736.00
2023-02-26T09:25:04.235Z,4012.00
2023-02-26T09:26:04.236Z,4616.00
2023-02-26T09:27:04.545Z,4916.00
2023-02-26T09:28:04.613Z,3880.00
2023-02-26T09:29:04.215Z,4088.00
2023-02-26T09:30:04.515Z,5036.00
2023-02-26T09:31:04.566Z,4756.00
2023-02-26T09:32:04.209Z,4724.00
2023-02-26T09:33:04.197Z,4428.00
2023-02-26T09:34:04.448Z,4404.00
2023-02-26T09:35:04.139Z,4748.00
2023-02-26T09:36:04.133Z,5308.00
2023-02-26T09:37:04.406Z,5544.00
2023-02-26T09:38:04.126Z,5616.00
2023-02-26T09:39:04.411Z,5724.00
2023-02-26T09:40:04.414Z,5844.00
2023-02-26T09:41:04.103Z,6064.00
2023-02-26T09:42:04.467Z,6272.00
2023-02-26T09:43:04.382Z,6524.00
2023-02-26T09:44:04.333Z,7336.00
2023-02-26T09:45:04.017Z,6360.00
2023-02-26T09:46:04.335Z,5696.00
2023-02-26T09:47:04.362Z,5196.00
2023-02-26T09:48:04.002Z,5028.00
2023-02-26T09:49:04.018Z,5968.00
2023-02-26T09:50:06.810Z,4516.00
2023-02-26T09:51:04.300Z,4100.00
2023-02-26T09:52:03.950Z,3880.00
2023-02-26T09:53:03.999Z,3860.00
2023-02-26T09:54:03.919Z,5244.00
2023-02-26T09:55:04.238Z,5216.00
2023-02-26T09:56:06.696Z,5136.00
2023-02-26T09:57:03.889Z,5296.00
2023-02-26T09:58:06.742Z,3888.00
2023-02-26T09:59:03.878Z,3868.00
2023-02-26T10:00:04.160Z,3976.00
2023-02-26T10:01:04.159Z,4024.00
2023-02-26T10:02:03.914Z,4460.00
2023-02-26T10:03:04.170Z,4308.00
2023-02-26T10:04:04.245Z,5816.00
2023-02-26T10:05:04.152Z,5620.00
2023-02-26T10:06:03.806Z,5608.00
2023-02-26T10:07:03.788Z,7400.00
2023-02-26T10:08:04.190Z,5972.00
2023-02-26T10:09:04.022Z,5844.00
2023-02-26T10:10:04.052Z,5872.00
2023-02-26T10:11:04.278Z,6528.00
2023-02-26T10:12:04.043Z,6880.00
2023-02-26T10:13:04.050Z,7136.00
2023-02-26T10:14:04.046Z,7628.00
2023-02-26T10:15:04.022Z,7452.00
2023-02-26T10:16:04.038Z,7468.00
2023-02-26T10:17:03.698Z,8312.00
2023-02-26T10:18:03.664Z,7952.00
2023-02-26T10:19:03.965Z,9476.00
2023-02-26T10:20:03.667Z,9720.00
2023-02-26T10:21:03.705Z,8396.00
2023-02-26T10:22:10.975Z,8936.00
2023-02-26T10:23:10.939Z,9024.00
2023-02-26T10:24:10.944Z,9132.00
2023-02-26T10:25:11.573Z,9076.00
2023-02-26T10:26:03.892Z,9100.00
2023-02-26T10:27:03.962Z,9040.00
2023-02-26T10:28:03.573Z,9128.00
2023-02-26T10:29:03.542Z,9232.00
2023-02-26T10:30:03.531Z,9392.00
2023-02-26T10:31:03.716Z,9684.00
2023-02-26T10:32:03.583Z,8228.00
2023-02-26T10:33:03.519Z,9560.00
2023-02-26T10:34:03.738Z,8944.00
2023-02-26T10:35:03.460Z,9652.00
2023-02-26T10:36:03.471Z,9356.00
2023-02-26T10:37:03.457Z,9076.00
2023-02-26T10:38:03.468Z,8720.00
2023-02-26T10:39:05.310Z,7964.00
2023-02-26T10:40:03.408Z,8644.00
2023-02-26T10:41:03.396Z,7896.00
2023-02-26T10:42:03.398Z,7548.00
2023-02-26T10:43:03.415Z,7644.00
2023-02-26T10:44:03.366Z,7612.00
2023-02-26T10:45:03.368Z,7996.00
2023-02-26T10:46:03.366Z,8276.00
2023-02-26T10:47:03.337Z,8596.00
2023-02-26T10:48:03.336Z,8816.00
2023-02-26T10:49:03.306Z,8904.00
2023-02-26T10:50:03.305Z,9188.00
2023-02-26T10:51:03.277Z,9476.00
2023-02-26T10:52:03.254Z,9584.00
2023-02-26T10:53:03.288Z,9592.00
2023-02-26T10:54:03.624Z,9624.00
2023-02-26T10:55:03.245Z,9664.00
2023-02-26T10:56:03.244Z,9648.00
2023-02-26T10:57:03.206Z,9732.00
2023-02-26T10:58:03.214Z,10000.00
2023-02-26T10:59:03.194Z,10020.00
2023-02-26T11:00:03.184Z,9752.00
2023-02-26T11:01:03.201Z,9368.00
2023-02-26T11:02:03.179Z,9144.00
2023-02-26T11:03:03.161Z,9000.00
2023-02-26T11:04:03.158Z,8396.00
2023-02-26T11:05:07.811Z,8256.00
2023-02-26T11:06:04.108Z,8140.00
2023-02-26T11:07:03.113Z,8004.00
2023-02-26T11:08:03.155Z,7960.00
2023-02-26T11:09:03.092Z,5684.00
2023-02-26T11:10:03.343Z,5248.00
2023-02-26T11:11:03.073Z,6604.00
2023-02-26T11:12:03.050Z,7244.00
2023-02-26T11:13:03.053Z,7256.00
2023-02-26T11:14:03.365Z,7320.00
2023-02-26T11:15:03.030Z,7396.00
2023-02-26T11:16:03.088Z,7452.00
2023-02-26T11:17:03.002Z,6340.00
2023-02-26T11:18:03.001Z,7684.00
2023-02-26T11:19:02.969Z,7900.00
2023-02-26T11:20:02.954Z,8072.00
2023-02-26T11:21:02.963Z,8220.00
2023-02-26T11:22:02.954Z,8392.00
2023-02-26T11:23:03.278Z,8604.00
2023-02-26T11:24:02.946Z,8832.00
2023-02-26T11:25:02.915Z,9216.00
2023-02-26T11:26:02.910Z,9668.00
2023-02-26T11:27:02.892Z,8804.00
2023-02-26T11:28:03.197Z,10164.00
2023-02-26T11:29:02.855Z,10248.00
2023-02-26T11:30:02.850Z,10124.00
2023-02-26T11:31:03.033Z,9916.00
2023-02-26T11:32:02.970Z,8696.00
2023-02-26T11:33:02.844Z,7668.00
2023-02-26T11:34:02.828Z,7492.00
2023-02-26T11:35:02.835Z,7364.00
2023-02-26T11:36:03.105Z,7716.00
2023-02-26T11:37:02.765Z,7328.00
2023-02-26T11:38:02.836Z,7436.00
2023-02-26T11:39:02.744Z,7576.00
2023-02-26T11:40:02.743Z,7488.00
2023-02-26T11:41:02.776Z,7604.00
2023-02-26T11:42:02.712Z,7600.00
2023-02-26T11:43:02.721Z,7772.00
2023-02-26T11:44:02.713Z,7908.00
2023-02-26T11:45:02.691Z,8176.00
2023-02-26T11:46:02.716Z,8368.00
2023-02-26T11:47:02.659Z,8556.00
2023-02-26T11:48:02.685Z,8380.00
2023-02-26T11:49:02.655Z,7872.00
2023-02-26T11:50:02.639Z,7556.00
2023-02-26T11:51:03.020Z,7240.00
2023-02-26T11:52:02.604Z,6800.00
2023-02-26T11:53:02.891Z,6492.00
2023-02-26T11:54:09.936Z,6236.00
2023-02-26T11:55:10.905Z,6076.00
2023-02-26T11:56:09.573Z,6024.00
2023-02-26T11:57:09.922Z,6000.00
2023-02-26T11:58:10.880Z,5928.00
2023-02-26T11:59:11.991Z,5908.00
2023-02-26T12:00:10.398Z,5880.00
2023-02-26T12:01:02.512Z,5904.00
2023-02-26T12:02:02.497Z,6028.00
2023-02-26T12:03:02.761Z,6268.00
2023-02-26T12:04:02.568Z,7948.00
2023-02-26T12:05:02.459Z,7288.00
2023-02-26T12:06:02.465Z,5844.00
2023-02-26T12:07:02.430Z,5540.00
2023-02-26T12:08:02.427Z,5200.00
2023-02-26T12:09:02.431Z,5284.00
2023-02-26T12:10:02.436Z,5932.00
2023-02-26T12:11:02.390Z,5832.00
2023-02-26T12:12:02.381Z,5932.00
2023-02-26T12:13:02.378Z,6024.00
2023-02-26T12:14:02.364Z,6264.00
2023-02-26T12:15:02.629Z,6512.00
2023-02-26T12:16:02.362Z,7224.00
2023-02-26T12:17:02.336Z,7776.00
2023-02-26T12:18:02.296Z,7932.00
2023-02-26T12:19:02.306Z,8072.00
2023-02-26T12:20:02.314Z,7984.00
2023-02-26T12:21:02.572Z,8608.00
2023-02-26T12:22:02.260Z,8432.00
2023-02-26T12:23:02.585Z,7800.00
2023-02-26T12:24:02.235Z,7516.00
2023-02-26T12:25:02.560Z,9024.00
2023-02-26T12:26:02.218Z,7580.00
2023-02-26T12:27:02.529Z,7884.00
2023-02-26T12:28:02.217Z,9024.00
2023-02-26T12:29:02.188Z,9596.00
2023-02-26T12:30:02.181Z,9440.00
2023-02-26T12:31:02.283Z,9384.00
2023-02-26T12:32:02.567Z,10004.00
2023-02-26T12:33:02.161Z,8264.00
2023-02-26T12:34:02.140Z,8072.00
2023-02-26T12:35:02.156Z,7672.00
2023-02-26T12:36:02.101Z,7340.00
2023-02-26T12:37:02.125Z,7276.00
2023-02-26T12:38:02.084Z,7152.00
2023-02-26T12:39:02.080Z,7180.00
2023-02-26T12:40:02.082Z,6860.00
2023-02-26T12:41:02.052Z,8048.00
2023-02-26T12:42:02.056Z,6688.00
2023-02-26T12:43:02.096Z,6688.00